メインページ
METAR-TAF:

METAR-TAF

空港 :

高知, 日本

高知空港

緯度: 33-32N, 経度: 133-40E, 海抜: 7m

現時点の気象観測

当レポートは42分前の23:00(UTC)に作成
北/北西の風 6kt
気温 5°C
湿度 60%
気圧 1022 hPa
視程10km以上
高度2000ftの雲はほとんどない
高度6000ftの雲は散在している
高度10000ftの千切れ雲あり

METAR: RJOK 182300Z 34006KT 9999 FEW020 SCT060 BKN100 05/M02 Q1022

時間: 08:42 (23:42 UTC)

予報

当レポートは34分前の23:08(UTC)に作成
予報は19日の 00時(UTC)から 20日の 06時(UTC)まで有効
の風 5kt
視程10km以上
高度2000ftの雲はほとんどない
高度6000ftの千切れ雲あり
19日の 02時(UTC)から 19日の 04時(UTC)まで徐々に
の風 6kt
19日の 07時(UTC)から 19日の 09時(UTC)まで徐々に
の風 6kt
20日の 00時(UTC)から 20日の 03時(UTC)まで徐々に
の風 6kt

TAF: RJOK 182308Z 1900/2006 35005KT 9999 FEW020 BKN060 BECMG 1902/1904 18006KT BECMG 1907/1909 35006KT BECMG 2000/2003 18006KT

4,000以上の空港の気象観測と天気予報(METAR報とTAF報)

利用可能な観測所は地図上に黄色い丸と赤い丸で示す。

丸の上にカーソルを重ねると観測所名を参照できる。

次にクリックすると気象観測と天気予報を参照できる。

マップの切り替え:黒色「×」印の緑ボタンをクリックして拡大、「-」印の緑ボタンをクリックして縮小、緑色の三角印をクリックして隣りの地図に切り替え


METAR-TAF: